Time;durP1;ratioP1;P1;durP2;ratioP2;P2;SDS_P1;SDS_P2;PMS_P1;PMS_P2;Temp;Humidity;BMP_temperature;BMP_pressure;BME280_temperature;BME280_humidity;BME280_pressure;Samples;Min_cycle;Max_cycle;Signal;HPM_P1;HPM_P2
2021/10/09 00:02:00;;;;;;;107.15;49.35;;;6.10;99.90;;;;;;4999478;28;20050;-91
2021/10/09 00:04:48;;;;;;;105.47;49.22;;;6.00;99.90;;;;;;5000702;28;20104;-91
2021/10/09 00:07:38;;;;;;;97.82;45.33;;;6.00;99.90;;;;;;5010734;28;20114;-90
2021/10/09 00:10:31;;;;;;;98.72;46.13;;;6.00;99.90;;;;;;4990510;28;20054;-91
2021/10/09 00:13:21;;;;;;;102.95;45.70;;;6.10;99.90;;;;;;5007695;28;20130;-91
2021/10/09 00:16:19;;;;;;;102.72;47.03;;;6.00;99.90;;;;;;5009242;28;20054;-90
2021/10/09 00:19:09;;;;;;;86.57;43.60;;;6.00;99.90;;;;;;5011305;28;20057;-90
2021/10/09 00:22:00;;;;;;;92.88;44.58;;;6.00;99.90;;;;;;5001021;28;20047;-92
2021/10/09 00:24:48;;;;;;;99.65;44.28;;;6.00;99.90;;;;;;4983809;28;20046;-89
2021/10/09 00:27:35;;;;;;;96.63;44.83;;;5.90;99.90;;;;;;5008623;28;20066;-92
2021/10/09 00:30:25;;;;;;;90.15;44.38;;;5.90;99.90;;;;;;4995706;28;20049;-91
2021/10/09 00:33:12;;;;;;;102.93;45.03;;;5.80;99.90;;;;;;4993093;28;20053;-89
2021/10/09 00:36:01;;;;;;;97.53;45.53;;;5.70;99.90;;;;;;4993614;28;20077;-89
2021/10/09 00:38:52;;;;;;;97.15;42.83;;;5.70;99.90;;;;;;5003391;28;20113;-89
2021/10/09 00:41:44;;;;;;;94.50;44.35;;;5.70;99.90;;;;;;4978798;28;20058;-89
2021/10/09 00:44:41;;;;;;;81.57;41.30;;;5.60;99.90;;;;;;5007809;28;20054;-89
2021/10/09 00:47:28;;;;;;;98.53;42.85;;;5.60;99.90;;;;;;5000644;28;20050;-90
2021/10/09 00:50:18;;;;;;;90.57;42.70;;;5.60;99.90;;;;;;5017154;28;20038;-90
2021/10/09 00:53:06;;;;;;;105.05;46.17;;;5.80;99.90;;;;;;5003729;28;20043;-89
2021/10/09 00:55:59;;;;;;;105.15;47.47;;;5.90;99.90;;;;;;4986944;28;20046;-88
2021/10/09 00:58:53;;;;;;;111.43;49.88;;;6.00;99.90;;;;;;4980402;28;20057;-89
2021/10/09 01:01:41;;;;;;;112.75;49.13;;;6.00;99.90;;;;;;4998597;28;20081;-89
2021/10/09 01:04:32;;;;;;;112.78;48.28;;;6.00;99.90;;;;;;4997658;28;20132;-90
2021/10/09 01:07:22;;;;;;;112.80;49.05;;;6.00;99.90;;;;;;4996602;28;20070;-91
2021/10/09 01:10:10;;;;;;;106.43;48.63;;;5.90;99.90;;;;;;4997265;28;20053;-89
2021/10/09 01:13:03;;;;;;;104.82;47.45;;;5.80;99.90;;;;;;4995960;28;20049;-89
2021/10/09 01:15:50;;;;;;;102.75;48.60;;;5.70;99.90;;;;;;4991962;28;20074;-90
2021/10/09 01:18:48;;;;;;;115.93;48.35;;;5.60;99.90;;;;;;4996156;28;20809;-88
2021/10/09 01:21:44;;;;;;;102.28;47.28;;;5.60;99.90;;;;;;4999073;28;20058;-88
2021/10/09 01:24:32;;;;;;;106.93;46.97;;;5.60;99.90;;;;;;5001754;28;20465;-89
2021/10/09 01:27:38;;;;;;;116.20;49.72;;;5.60;99.90;;;;;;4988169;28;20046;-90
2021/10/09 01:30:50;;;;;;;111.68;46.65;;;5.50;99.90;;;;;;4989726;28;20047;-89
2021/10/09 01:33:40;;;;;;;101.43;46.65;;;5.50;99.90;;;;;;5004166;28;20125;-90
2021/10/09 01:36:46;;;;;;;107.43;46.60;;;5.50;99.90;;;;;;4978128;28;20051;-89
2021/10/09 01:39:42;;;;;;;108.50;46.90;;;5.40;99.90;;;;;;4983908;28;20117;-89
2021/10/09 01:42:29;;;;;;;102.68;46.83;;;5.40;99.90;;;;;;4995929;28;20121;-91
2021/10/09 01:45:29;;;;;;;106.53;47.42;;;5.30;99.90;;;;;;4991943;28;20098;-89
2021/10/09 01:48:17;;;;;;;99.15;46.38;;;5.30;99.90;;;;;;4992874;28;20039;-90
2021/10/09 01:51:07;;;;;;;116.63;48.22;;;5.30;99.90;;;;;;4998410;28;20165;-90
2021/10/09 01:53:59;;;;;;;101.93;45.83;;;5.20;99.90;;;;;;5003195;28;20483;-89
2021/10/09 01:56:53;;;;;;;110.55;46.53;;;5.20;99.90;;;;;;4970096;28;20365;-89
2021/10/09 01:59:40;;;;;;;99.88;46.08;;;5.10;99.90;;;;;;4994828;28;20054;-89
2021/10/09 02:02:29;;;;;;;109.47;47.83;;;5.10;99.90;;;;;;5002439;28;20054;-89
2021/10/09 02:05:23;;;;;;;107.10;47.92;;;5.10;99.90;;;;;;4995182;28;20133;-90
2021/10/09 02:08:15;;;;;;;114.45;50.13;;;5.10;99.90;;;;;;5000954;28;20042;-91
2021/10/09 02:11:19;;;;;;;;;;;;;;;;;;;;;
2021/10/09 02:14:24;;;;;;;115.90;51.33;;;5.20;99.90;;;;;;5001274;28;20106;-90
2021/10/09 02:17:58;;;;;;;121.18;51.35;;;5.20;99.90;;;;;;4994232;28;20047;-91
2021/10/09 02:26:46;;;;;;;110.22;48.40;;;5.40;99.90;;;;;;4975242;28;20476;-90
2021/10/09 02:29:41;;;;;;;122.25;51.45;;;5.50;99.90;;;;;;4986791;28;20065;-91
2021/10/09 02:32:36;;;;;;;111.60;50.80;;;5.60;99.90;;;;;;4996334;28;20054;-90
2021/10/09 02:35:24;;;;;;;108.47;48.33;;;5.60;99.90;;;;;;4980778;28;20066;-90
2021/10/09 02:38:14;;;;;;;102.50;48.58;;;5.60;99.90;;;;;;4993538;28;20508;-91
2021/10/09 02:41:09;;;;;;;106.03;48.25;;;5.60;99.90;;;;;;4996394;28;20093;-90
2021/10/09 02:44:22;;;;;;;108.78;47.50;;;5.60;99.90;;;;;;4925978;29;20052;-91
2021/10/09 02:47:14;;;;;;;102.80;47.40;;;5.50;99.90;;;;;;4935603;29;20051;-92
2021/10/09 02:50:06;;;;;;;107.72;46.22;;;5.50;99.90;;;;;;4919375;29;20047;-91
2021/10/09 02:53:01;;;;;;;100.53;47.08;;;5.40;99.90;;;;;;4923578;29;20403;-90
2021/10/09 02:55:55;;;;;;;96.18;46.60;;;5.40;99.90;;;;;;4937134;29;20484;-91
2021/10/09 02:58:45;;;;;;;99.05;46.97;;;5.40;99.90;;;;;;4916106;29;20060;-91
2021/10/09 03:01:42;;;;;;;93.28;44.90;;;5.40;99.90;;;;;;4938573;29;20047;-91
2021/10/09 03:04:33;;;;;;;100.80;45.08;;;5.40;99.90;;;;;;4934867;29;20062;-90
2021/10/09 03:07:31;;;;;;;89.00;44.00;;;5.30;99.90;;;;;;4938305;28;20068;-90
2021/10/09 03:10:24;;;;;;;99.00;44.60;;;5.20;99.90;;;;;;4995382;28;20042;-89
2021/10/09 03:13:14;;;;;;;95.45;43.55;;;5.30;99.90;;;;;;5004001;28;20050;-88
2021/10/09 03:16:05;;;;;;;87.50;43.55;;;5.20;99.90;;;;;;4984050;28;20054;-88
2021/10/09 03:18:55;;;;;;;91.63;44.03;;;5.20;99.90;;;;;;4976566;28;20389;-89
2021/10/09 03:21:55;;;;;;;;;;;;;;;;;;;;;
2021/10/09 03:24:57;;;;;;;91.05;45.15;;;5.30;99.90;;;;;;5000671;28;20033;-90
2021/10/09 03:27:45;;;;;;;95.18;46.08;;;5.20;99.90;;;;;;5015061;28;20061;-89
2021/10/09 03:30:32;;;;;;;90.20;45.30;;;5.30;99.90;;;;;;5015920;28;20045;-89
2021/10/09 03:33:19;;;;;;;95.63;46.78;;;5.30;99.90;;;;;;5000823;28;20053;-90
2021/10/09 03:36:07;;;;;;;97.82;47.22;;;5.40;99.90;;;;;;5053641;23;20053;-89
2021/10/09 03:38:54;;;;;;;93.32;45.13;;;5.40;99.90;;;;;;4994301;28;20049;-90
2021/10/09 03:41:48;;;;;;;99.55;46.40;;;5.50;99.90;;;;;;4989197;28;20070;-91
2021/10/09 03:44:42;;;;;;;97.60;46.72;;;5.50;99.90;;;;;;4989885;28;20046;-90
2021/10/09 03:53:20;;;;;;;87.85;44.90;;;5.40;99.90;;;;;;5019014;28;20042;-89
2021/10/09 03:56:08;;;;;;;94.38;43.60;;;5.40;99.90;;;;;;5006609;28;20057;-89
2021/10/09 03:58:56;;;;;;;101.13;46.75;;;5.50;99.90;;;;;;5004038;28;20051;-89
2021/10/09 04:01:59;;;;;;;96.50;43.67;;;5.50;99.90;;;;;;5014459;28;20047;-91
2021/10/09 04:04:47;;;;;;;89.75;43.90;;;5.40;99.90;;;;;;4992380;28;20073;-90
2021/10/09 04:07:34;;;;;;;94.18;44.97;;;5.40;99.90;;;;;;5017432;28;20383;-90
2021/10/09 04:10:24;;;;;;;85.28;43.25;;;5.40;99.90;;;;;;5012999;28;20144;-91
2021/10/09 04:13:11;;;;;;;93.00;43.75;;;5.30;99.90;;;;;;5013537;28;20547;-90
2021/10/09 04:16:02;;;;;;;96.10;43.60;;;5.20;99.90;;;;;;5011030;28;20057;-90
2021/10/09 04:18:51;;;;;;;98.47;42.67;;;5.10;99.90;;;;;;5000283;28;20058;-92
2021/10/09 04:21:39;;;;;;;101.70;42.58;;;5.00;99.90;;;;;;5032408;28;20464;-92
2021/10/09 04:24:26;;;;;;;86.85;40.80;;;5.00;99.90;;;;;;5016207;28;20073;-91
2021/10/09 04:27:16;;;;;;;94.93;43.95;;;4.90;99.90;;;;;;5012738;28;20053;-91
2021/10/09 04:30:05;;;;;;;88.65;41.95;;;4.90;99.90;;;;;;5019258;28;20045;-92
2021/10/09 04:33:01;;;;;;;87.35;41.80;;;4.80;99.90;;;;;;5022246;28;20049;-92
2021/10/09 04:35:48;;;;;;;82.80;41.05;;;4.80;99.90;;;;;;4992609;28;20070;-90
2021/10/09 04:38:42;;;;;;;80.15;41.03;;;4.70;99.90;;;;;;4999998;28;20132;-91
2021/10/09 04:41:29;;;;;;;91.05;44.75;;;4.80;99.90;;;;;;5013702;28;20065;-90
2021/10/09 04:44:17;;;;;;;89.43;44.50;;;4.90;99.90;;;;;;5005717;28;20061;-91
2021/10/09 04:47:06;;;;;;;91.53;43.65;;;5.00;99.90;;;;;;4996568;28;20046;-85
2021/10/09 04:49:55;;;;;;;91.50;43.53;;;5.00;99.90;;;;;;4999055;28;20046;-86
2021/10/09 04:52:43;;;;;;;82.88;43.78;;;5.00;99.90;;;;;;4993112;28;20219;-85
2021/10/09 04:55:30;;;;;;;84.35;43.72;;;5.00;99.90;;;;;;5014418;28;20135;-85
2021/10/09 04:58:17;;;;;;;87.15;44.00;;;5.00;99.90;;;;;;4999539;28;20074;-85
2021/10/09 05:01:07;;;;;;;84.93;42.95;;;5.00;99.90;;;;;;5004689;28;20053;-85
2021/10/09 05:03:54;;;;;;;84.47;43.85;;;4.90;99.90;;;;;;5002471;28;20041;-85
2021/10/09 05:06:42;;;;;;;98.25;44.92;;;4.90;99.90;;;;;;4999847;28;20068;-86
2021/10/09 05:09:29;;;;;;;93.22;44.30;;;4.80;99.90;;;;;;5010983;28;20132;-92
2021/10/09 05:12:18;;;;;;;87.72;42.33;;;4.70;99.90;;;;;;5016652;28;20120;-92
2021/10/09 05:15:06;;;;;;;84.00;42.30;;;4.60;99.90;;;;;;5008356;28;20465;-93
2021/10/09 05:17:53;;;;;;;82.45;40.72;;;4.50;99.90;;;;;;5006032;28;20436;-93
2021/10/09 05:20:41;;;;;;;82.65;40.47;;;4.50;99.90;;;;;;5004465;28;20111;-84
2021/10/09 05:23:31;;;;;;;82.25;40.85;;;4.40;99.90;;;;;;4996561;28;20057;-84
2021/10/09 05:26:19;;;;;;;83.18;40.60;;;4.40;99.90;;;;;;5011383;28;20140;-84
2021/10/09 05:29:12;;;;;;;84.55;41.08;;;4.30;99.90;;;;;;4998386;28;20090;-84
2021/10/09 05:32:07;;;;;;;90.03;41.63;;;4.30;99.90;;;;;;5013363;28;20046;-84
2021/10/09 05:34:55;;;;;;;96.10;43.63;;;4.20;99.90;;;;;;5003857;28;20116;-83
2021/10/09 05:37:42;;;;;;;94.20;42.22;;;4.40;99.90;;;;;;5005057;28;20149;-84
2021/10/09 05:40:30;;;;;;;90.32;44.85;;;4.50;99.90;;;;;;5013672;28;20441;-84
2021/10/09 05:43:20;;;;;;;104.07;46.00;;;4.60;99.90;;;;;;4993967;28;20137;-84
2021/10/09 05:46:07;;;;;;;102.82;48.70;;;4.70;99.90;;;;;;5004117;28;20491;-84
2021/10/09 05:48:56;;;;;;;103.18;47.03;;;4.70;99.90;;;;;;4999291;28;20464;-83
2021/10/09 05:51:55;;;;;;;102.68;48.30;;;4.70;99.90;;;;;;4999736;28;20042;-84
2021/10/09 05:57:35;;;;;;;107.38;47.28;;;4.60;99.90;;;;;;5019385;28;20127;-91
2021/10/09 07:02:05;;;;;;;104.15;51.78;;;7.20;99.90;;;;;;4997326;28;20144;-88
2021/10/09 07:04:52;;;;;;;95.05;48.83;;;7.50;99.90;;;;;;5007847;28;20049;-87
2021/10/09 07:07:45;;;;;;;84.95;45.10;;;7.60;99.90;;;;;;5006113;28;20151;-88
2021/10/09 07:10:34;;;;;;;79.47;42.25;;;7.70;99.90;;;;;;5013651;28;20117;-89
2021/10/09 07:13:21;;;;;;;71.70;39.42;;;7.80;99.90;;;;;;5011709;28;20058;-89
2021/10/09 07:16:09;;;;;;;61.90;36.40;;;7.80;99.90;;;;;;5012558;28;20050;-88
2021/10/09 07:18:56;;;;;;;64.00;36.22;;;7.90;99.90;;;;;;5007548;28;20050;-87
2021/10/09 07:21:44;;;;;;;66.65;37.83;;;8.00;99.90;;;;;;5005578;28;20096;-88
2021/10/09 07:24:51;;;;;;;60.03;35.97;;;8.30;99.90;;;;;;4997385;28;20444;-89
2021/10/09 07:27:38;;;;;;;56.60;32.53;;;8.60;99.90;;;;;;5028441;28;20064;-88
2021/10/09 07:30:28;;;;;;;43.58;28.48;;;8.90;99.90;;;;;;5010530;28;20037;-91
2021/10/09 07:33:16;;;;;;;50.78;26.90;;;9.00;99.90;;;;;;5015966;28;20048;-89
2021/10/09 07:36:04;;;;;;;41.75;27.50;;;8.90;99.90;;;;;;4997191;28;20060;-88
2021/10/09 07:38:51;;;;;;;50.50;27.35;;;8.80;99.90;;;;;;4999263;28;20100;-88
2021/10/09 07:41:38;;;;;;;44.13;27.45;;;8.80;99.90;;;;;;5011615;28;20053;-90
2021/10/09 07:44:25;;;;;;;48.45;27.05;;;8.90;99.90;;;;;;5014881;28;20488;-92
2021/10/09 07:47:15;;;;;;;47.72;25.55;;;9.10;99.90;;;;;;5009239;28;20053;-92
2021/10/09 07:50:03;;;;;;;40.55;23.85;;;9.20;99.90;;;;;;5014160;28;20157;-88
2021/10/09 07:52:51;;;;;;;40.33;24.05;;;9.40;99.90;;;;;;5009632;28;20054;-90
2021/10/09 07:55:40;;;;;;;38.00;24.63;;;9.70;99.90;;;;;;4993039;28;20188;-89
2021/10/09 07:58:27;;;;;;;33.28;22.83;;;10.10;99.90;;;;;;4991322;28;20188;-90
2021/10/09 08:01:17;;;;;;;38.42;22.45;;;10.60;99.90;;;;;;4994342;28;20116;-89
2021/10/09 08:04:05;;;;;;;33.00;21.65;;;10.90;99.90;;;;;;5013217;28;20121;-87
2021/10/09 08:06:52;;;;;;;40.55;22.13;;;10.90;99.90;;;;;;4993943;28;20078;-87
2021/10/09 08:09:39;;;;;;;38.97;21.30;;;10.90;99.90;;;;;;4993406;28;20406;-89
2021/10/09 08:12:26;;;;;;;31.90;21.25;;;10.90;99.90;;;;;;4986378;28;20434;-89
2021/10/09 08:15:13;;;;;;;30.00;21.40;;;10.90;99.90;;;;;;5011427;28;20045;-90
2021/10/09 08:18:00;;;;;;;33.50;20.75;;;10.80;99.90;;;;;;4992732;28;20082;-90
2021/10/09 08:20:52;;;;;;;33.45;20.63;;;10.90;99.90;;;;;;4991717;28;20137;-90
2021/10/09 08:26:51;;;;;;;;;;;10.90;99.90;;;;;;5023156;28;20107;-91
2021/10/09 08:39:15;;;;;;;34.92;22.27;;;11.20;99.90;;;;;;4971156;28;20066;-89
2021/10/09 08:42:11;;;;;;;36.42;21.92;;;11.20;99.90;;;;;;4992633;28;20061;-89
2021/10/09 08:44:59;;;;;;;36.75;22.70;;;11.30;99.90;;;;;;4979380;28;20046;-88
2021/10/09 08:47:48;;;;;;;36.85;23.23;;;11.40;99.90;;;;;;5012566;28;20493;-90
2021/10/09 08:50:37;;;;;;;36.25;22.92;;;11.40;99.90;;;;;;5009198;28;20543;-90
2021/10/09 08:53:42;;;;;;;29.92;21.33;;;11.70;99.90;;;;;;4998114;28;20104;-89
2021/10/09 08:56:34;;;;;;;35.35;22.25;;;11.70;99.90;;;;;;4998090;28;20081;-91
2021/10/09 08:59:30;;;;;;;35.17;21.88;;;11.70;99.90;;;;;;4981471;28;20096;-88
2021/10/09 09:25:26;;;;;;;26.63;17.42;;;15.10;99.90;;;;;;5011832;28;20087;-90
2021/10/09 09:33:39;;;;;;;28.75;16.15;;;17.20;96.80;;;;;;4956727;29;20062;-90
2021/10/09 09:39:39;;;;;;;26.70;16.33;;;17.90;93.60;;;;;;5015084;28;20116;-90
2021/10/09 09:42:26;;;;;;;22.88;15.10;;;18.20;92.00;;;;;;5035445;28;20058;-90
2021/10/09 09:45:25;;;;;;;23.25;15.77;;;18.70;90.90;;;;;;4997966;28;20114;-87
2021/10/09 09:48:13;;;;;;;30.08;15.45;;;18.70;84.90;;;;;;4996637;28;20154;-90
2021/10/09 09:51:00;;;;;;;20.20;14.20;;;18.50;85.20;;;;;;5031605;28;20380;-87
2021/10/09 09:53:51;;;;;;;21.73;13.70;;;18.10;84.20;;;;;;5017255;28;20124;-90
2021/10/09 09:56:39;;;;;;;25.17;13.85;;;18.20;83.90;;;;;;5017609;28;20131;-90
2021/10/09 09:59:32;;;;;;;26.60;13.98;;;18.80;84.50;;;;;;5015934;28;20085;-89
2021/10/09 10:02:20;;;;;;;23.35;13.18;;;19.30;79.20;;;;;;5015482;28;20147;-89
2021/10/09 10:05:09;;;;;;;19.20;12.80;;;19.60;75.50;;;;;;5010862;28;20392;-90
2021/10/09 10:07:56;;;;;;;26.40;14.20;;;19.60;75.20;;;;;;5005593;28;20114;-91
2021/10/09 10:10:43;;;;;;;24.30;13.82;;;19.20;73.90;;;;;;4993531;28;20054;-91
2021/10/09 10:13:32;;;;;;;24.30;13.82;;;19.10;74.20;;;;;;5000314;28;20565;-90
2021/10/09 10:16:19;;;;;;;18.40;13.05;;;19.20;73.20;;;;;;5016668;28;20285;-92
2021/10/09 10:19:06;;;;;;;26.92;13.70;;;19.30;72.60;;;;;;4994713;28;20050;-90
2021/10/09 10:21:55;;;;;;;19.92;11.98;;;18.80;73.90;;;;;;5012266;28;20060;-90
2021/10/09 10:24:45;;;;;;;16.65;12.27;;;18.90;73.00;;;;;;5021239;28;20061;-88
2021/10/09 10:27:38;;;;;;;24.60;12.63;;;18.70;74.10;;;;;;5013879;28;20354;-91
2021/10/09 10:30:39;;;;;;;17.58;11.50;;;18.90;73.10;;;;;;5019303;28;20045;-91
2021/10/09 10:33:30;;;;;;;21.30;12.30;;;19.50;71.30;;;;;;5028661;28;20079;-89
2021/10/09 10:36:39;;;;;;;22.05;12.00;;;19.60;70.00;;;;;;5013480;28;20562;-88
2021/10/09 10:39:43;;;;;;;17.38;11.52;;;20.10;66.70;;;;;;4997768;28;20549;-85
2021/10/09 10:42:31;;;;;;;20.00;11.07;;;20.20;67.60;;;;;;5012554;28;20492;-85
2021/10/09 10:45:34;;;;;;;19.65;10.70;;;20.90;64.20;;;;;;5011599;28;20128;-88
2021/10/09 10:48:51;;;;;;;19.45;11.85;;;20.10;65.10;;;;;;5004010;28;20152;-90
2021/10/09 10:55:02;;;;;;;17.27;10.43;;;20.20;66.80;;;;;;5013722;28;20052;-91
2021/10/09 10:58:19;;;;;;;17.10;10.50;;;20.20;61.50;;;;;;5013239;28;20112;-90
2021/10/09 11:01:26;;;;;;;18.08;10.50;;;19.40;64.50;;;;;;5000648;28;20067;-89
2021/10/09 11:04:17;;;;;;;18.85;10.13;;;19.70;64.50;;;;;;4996628;28;20050;-91
2021/10/09 11:07:34;;;;;;;17.10;10.80;;;20.10;64.20;;;;;;5026373;28;20042;-90
2021/10/09 11:10:25;;;;;;;18.70;10.63;;;20.20;62.00;;;;;;4997054;28;20512;-92
2021/10/09 11:13:14;;;;;;;19.95;10.25;;;19.80;62.80;;;;;;4990665;28;20065;-91
2021/10/09 11:16:03;;;;;;;16.23;10.13;;;19.90;63.90;;;;;;4994800;28;20084;-90
2021/10/09 11:18:53;;;;;;;20.95;9.23;;;20.20;63.50;;;;;;4986234;28;20054;-90
2021/10/09 11:21:55;;;;;;;13.48;8.38;;;21.00;60.10;;;;;;4979636;28;20137;-88
2021/10/09 11:24:43;;;;;;;14.80;8.85;;;21.20;57.80;;;;;;4988439;28;20458;-90
2021/10/09 11:27:35;;;;;;;12.90;8.73;;;20.50;57.60;;;;;;4992688;28;20100;-89
2021/10/09 11:30:23;;;;;;;13.68;8.10;;;20.40;59.50;;;;;;5005643;28;20408;-92
2021/10/09 11:33:11;;;;;;;15.60;8.52;;;20.90;58.40;;;;;;4988554;28;20068;-91
2021/10/09 11:36:01;;;;;;;16.85;8.73;;;21.10;57.00;;;;;;4998616;28;20114;-89
2021/10/09 11:39:36;;;;;;;;;;;;;;;;;;;;;
2021/10/09 11:42:49;;;;;;;12.88;8.00;;;20.90;56.20;;;;;;5001044;28;20068;-87
2021/10/09 11:53:48;;;;;;;14.88;8.10;;;21.00;56.20;;;;;;4811151;29;20125;-90
2021/10/09 11:56:59;;;;;;;12.02;7.30;;;21.30;53.60;;;;;;4856395;29;20071;-90
2021/10/09 11:59:57;;;;;;;;;;;21.70;54.70;;;;;;4846110;29;20054;-91
2021/10/09 12:03:36;;;;;;;;;;;;;;;;;;;;;
2021/10/09 12:06:55;;;;;;;11.20;6.47;;;22.20;52.80;;;;;;4942791;29;20079;-90
2021/10/09 12:10:06;;;;;;;13.73;6.57;;;22.50;51.60;;;;;;4925968;29;20456;-87
2021/10/09 12:13:03;;;;;;;13.80;7.55;;;21.80;50.80;;;;;;4948355;29;20036;-89
2021/10/09 12:16:15;;;;;;;11.10;6.85;;;21.50;52.60;;;;;;4943750;29;20040;-90
2021/10/09 12:19:16;;;;;;;13.88;7.65;;;21.10;52.70;;;;;;4926691;29;20175;-89
2021/10/09 12:22:19;;;;;;;12.90;6.95;;;21.70;53.00;;;;;;4925206;29;20052;-88
2021/10/09 12:25:27;;;;;;;10.10;6.85;;;22.90;52.50;;;;;;4948018;28;20043;-88
2021/10/09 12:28:31;;;;;;;11.60;6.65;;;23.40;48.40;;;;;;4991318;28;20069;-89
2021/10/09 12:31:29;;;;;;;12.85;7.50;;;21.60;50.70;;;;;;5000871;28;20045;-88
2021/10/09 12:34:35;;;;;;;10.05;7.30;;;21.10;52.40;;;;;;5002742;28;20047;-90
2021/10/09 12:37:27;;;;;;;11.93;7.18;;;21.60;51.80;;;;;;5011116;28;20432;-89
2021/10/09 12:40:18;;;;;;;10.07;7.38;;;21.90;50.80;;;;;;5009538;28;20069;-89
2021/10/09 12:43:17;;;;;;;10.57;7.40;;;22.00;50.80;;;;;;4988797;28;20061;-92
2021/10/09 12:46:07;;;;;;;16.00;7.18;;;22.80;49.40;;;;;;5009135;28;20101;-88
2021/10/09 12:49:30;;;;;;;10.60;7.53;;;22.50;49.30;;;;;;4953076;29;20501;-89
2021/10/09 12:52:37;;;;;;;11.60;7.25;;;21.90;49.90;;;;;;4940009;29;20047;-89
2021/10/09 12:55:27;;;;;;;12.48;7.25;;;22.00;51.80;;;;;;4953384;29;20061;-92
2021/10/09 12:58:17;;;;;;;13.10;7.10;;;22.40;51.10;;;;;;4945571;29;20062;-89
2021/10/09 13:01:27;;;;;;;13.00;8.07;;;22.30;49.80;;;;;;4939250;28;20047;-91
2021/10/09 13:04:17;;;;;;;17.40;7.82;;;22.70;50.10;;;;;;4954469;28;20445;-88
2021/10/09 13:07:07;;;;;;;11.88;8.57;;;22.60;50.00;;;;;;5012361;28;20121;-90
2021/10/09 13:10:12;;;;;;;11.65;7.80;;;22.20;49.40;;;;;;5004610;28;20056;-89
2021/10/09 13:13:43;;;;;;;16.27;8.77;;;22.20;51.50;;;;;;5017359;28;20050;-92
2021/10/09 13:16:37;;;;;;;12.45;9.10;;;22.40;51.50;;;;;;5017617;28;20053;-91
2021/10/09 13:19:28;;;;;;;15.85;9.07;;;22.70;52.20;;;;;;5011031;28;20046;-90
2021/10/09 13:22:43;;;;;;;15.30;9.93;;;22.90;52.20;;;;;;5011461;28;20052;-91
2021/10/09 13:30:19;;;;;;;18.10;9.70;;;22.80;52.40;;;;;;5003523;28;20076;-93
2021/10/09 13:41:56;;;;;;;19.88;10.48;;;24.40;50.50;;;;;;4898587;29;20045;-91
2021/10/09 13:45:12;;;;;;;16.90;9.07;;;24.10;50.80;;;;;;4937266;29;20182;-90
2021/10/09 13:47:59;;;;;;;12.43;9.07;;;23.80;48.90;;;;;;4940039;29;20051;-90
2021/10/09 13:50:51;;;;;;;13.88;8.60;;;23.30;49.30;;;;;;4926725;29;20043;-91
2021/10/09 13:54:33;;;;;;;;;;;;;;;;;;;;;
2021/10/09 13:57:44;;;;;;;16.15;9.18;;;23.50;50.50;;;;;;4932418;28;20081;-91
2021/10/09 14:00:36;;;;;;;16.08;9.65;;;24.30;49.20;;;;;;4951649;29;20075;-90
2021/10/09 14:03:29;;;;;;;12.48;10.02;;;24.30;49.20;;;;;;4945045;29;20052;-91
2021/10/09 14:06:17;;;;;;;16.08;9.95;;;23.80;50.40;;;;;;4933434;29;20139;-88
2021/10/09 14:09:12;;;;;;;14.30;9.95;;;23.30;51.20;;;;;;4946252;28;20051;-89
2021/10/09 14:12:35;;;;;;;;;;;;;;;;;;;;;
2021/10/09 14:15:30;;;;;;;13.70;9.40;;;22.90;52.00;;;;;;4955278;28;20046;-91
2021/10/09 14:18:35;;;;;;;15.07;8.80;;;22.90;51.80;;;;;;4929435;28;20051;-90
2021/10/09 14:21:46;;;;;;;18.02;8.73;;;23.00;52.60;;;;;;4944392;28;20143;-90
2021/10/09 14:24:45;;;;;;;14.07;8.70;;;23.30;51.20;;;;;;4930766;29;20158;-89
2021/10/09 14:27:35;;;;;;;17.27;9.77;;;23.00;51.40;;;;;;4963323;28;20046;-89
2021/10/09 14:30:23;;;;;;;12.68;9.32;;;22.70;51.10;;;;;;5007529;28;20046;-87
2021/10/09 14:33:13;;;;;;;12.93;9.20;;;22.40;52.10;;;;;;4991611;28;20066;-88
2021/10/09 14:36:06;;;;;;;13.73;9.02;;;22.10;53.10;;;;;;5016778;28;20151;-90
2021/10/09 14:38:56;;;;;;;15.05;9.98;;;22.00;53.60;;;;;;4998309;28;20069;-85
2021/10/09 14:41:47;;;;;;;14.85;9.05;;;21.90;53.80;;;;;;4999483;28;20116;-87
2021/10/09 14:44:36;;;;;;;13.30;8.50;;;21.70;54.10;;;;;;4985726;28;20109;-90
2021/10/09 14:50:44;;;;;;;16.20;9.23;;;22.10;53.80;;;;;;5005004;28;20472;-88
2021/10/09 14:53:46;;;;;;;16.55;8.80;;;22.30;52.60;;;;;;5005902;28;20098;-90
2021/10/09 15:19:01;;;;;;;14.85;9.30;;;21.20;55.30;;;;;;4993423;28;20054;-90
2021/10/09 15:22:06;;;;;;;12.13;8.15;;;21.00;55.20;;;;;;5001005;28;20452;-90
2021/10/09 15:25:26;;;;;;;12.07;8.13;;;20.70;55.30;;;;;;5002487;28;20042;-90
2021/10/09 15:28:24;;;;;;;12.43;8.25;;;20.40;56.30;;;;;;5010764;28;20261;-89
2021/10/09 15:31:38;;;;;;;17.15;8.90;;;20.30;56.20;;;;;;5006873;28;20069;-89
2021/10/09 15:34:26;;;;;;;15.50;7.93;;;20.10;57.40;;;;;;5021701;28;20056;-89
2021/10/09 15:37:45;;;;;;;;;;;;;;;;;;;;;
2021/10/09 15:40:56;;;;;;;16.52;8.15;;;20.10;56.60;;;;;;4947540;29;20051;-90
2021/10/09 15:44:08;;;;;;;14.27;8.35;;;20.10;57.00;;;;;;4883872;29;20117;-90
2021/10/09 15:47:29;;;;;;;;;;;;;;;;;;;;;
2021/10/09 15:51:11;;;;;;;;;;;;;;;;;;;;;
2021/10/09 15:57:58;;;;;;;16.20;7.82;;;19.40;58.80;;;;;;4835848;29;20204;-90
2021/10/09 16:01:02;;;;;;;13.65;7.05;;;18.80;59.80;;;;;;4880243;29;20101;-90
2021/10/09 16:04:19;;;;;;;;;;;;;;;;;;;;;
2021/10/09 16:07:36;;;;;;;13.10;7.57;;;18.20;62.20;;;;;;4889076;29;20060;-91
2021/10/09 16:10:34;;;;;;;11.02;7.13;;;17.90;63.10;;;;;;4907679;29;20060;-90
2021/10/09 16:13:25;;;;;;;15.27;8.15;;;17.20;65.20;;;;;;4917261;29;20076;-90
2021/10/09 16:16:14;;;;;;;15.35;8.77;;;16.30;69.50;;;;;;4913697;29;20131;-91
2021/10/09 16:19:06;;;;;;;15.38;9.10;;;15.50;73.00;;;;;;4919876;29;20044;-90
2021/10/09 16:22:15;;;;;;;15.38;8.15;;;14.80;77.00;;;;;;4931144;29;20044;-90
2021/10/09 16:25:04;;;;;;;15.38;8.52;;;14.10;81.40;;;;;;4934048;29;20047;-90
2021/10/09 16:27:58;;;;;;;15.70;8.30;;;13.70;84.60;;;;;;5005324;28;20100;-89
2021/10/09 16:31:00;;;;;;;;;;;;;;;;;;;;;
2021/10/09 16:33:53;;;;;;;13.27;8.27;;;12.90;90.20;;;;;;5003546;28;20073;-88
2021/10/09 16:36:42;;;;;;;14.32;8.73;;;12.50;92.40;;;;;;5000531;28;20050;-91
2021/10/09 16:39:30;;;;;;;14.30;9.10;;;12.20;95.00;;;;;;4999063;28;20049;-90
2021/10/09 16:42:21;;;;;;;17.25;8.82;;;12.00;97.10;;;;;;5008206;28;20106;-90
2021/10/09 16:45:14;;;;;;;14.35;8.70;;;11.70;99.90;;;;;;5016931;28;20049;-90
2021/10/09 16:48:01;;;;;;;13.18;8.57;;;11.50;99.90;;;;;;4998511;28;20042;-91
2021/10/09 16:50:53;;;;;;;12.85;8.63;;;11.40;99.90;;;;;;5010335;28;20106;-90
2021/10/09 16:53:43;;;;;;;15.38;9.52;;;11.30;99.90;;;;;;4993693;28;20069;-90
2021/10/09 16:56:34;;;;;;;17.15;8.90;;;11.10;99.90;;;;;;4988191;28;20055;-90
2021/10/09 16:59:25;;;;;;;18.23;10.35;;;11.00;99.90;;;;;;5011482;28;20412;-90
2021/10/09 17:02:13;;;;;;;13.68;8.68;;;11.00;99.90;;;;;;5025377;28;20042;-89
2021/10/09 17:05:11;;;;;;;16.73;9.32;;;10.90;99.90;;;;;;5018365;28;20431;-89
2021/10/09 17:08:37;;;;;;;;;;;;;;;;;;;;;
2021/10/09 17:11:52;;;;;;;16.08;8.82;;;10.90;99.90;;;;;;4966428;28;20085;-90
2021/10/09 17:15:30;;;;;;;;;;;;;;;;;;;;;
2021/10/09 17:18:49;;;;;;;;;;;;;;;;;;;;;
2021/10/09 17:22:09;;;;;;;17.30;9.88;;;10.50;99.90;;;;;;4918657;29;20043;-90
2021/10/09 17:25:25;;;;;;;;;;;;;;;;;;;;;
2021/10/09 17:28:32;;;;;;;15.40;10.60;;;10.40;99.90;;;;;;4945139;29;20083;-91
2021/10/09 17:31:38;;;;;;;19.23;10.15;;;10.30;99.90;;;;;;4945981;29;20170;-91
2021/10/09 17:34:55;;;;;;;16.42;10.70;;;10.20;99.90;;;;;;4939632;28;20074;-90
2021/10/09 17:38:14;;;;;;;17.23;10.70;;;10.10;99.90;;;;;;5012267;28;20125;-90
2021/10/09 17:41:14;;;;;;;17.40;11.25;;;10.00;99.90;;;;;;4996823;28;20139;-91
2021/10/09 17:44:17;;;;;;;;;;;;;;;;;;;;;
2021/10/09 17:47:35;;;;;;;20.23;10.95;;;9.90;99.90;;;;;;4992852;28;20069;-90
2021/10/09 17:50:48;;;;;;;15.88;11.50;;;9.80;99.90;;;;;;4932544;29;20055;-91
2021/10/09 17:53:54;;;;;;;;;;;;;;;;;;;;;
2021/10/09 17:57:08;;;;;;;;;;;;;;;;;;;;;
2021/10/09 18:00:11;;;;;;;;;;;;;;;;;;;;;
2021/10/09 18:03:05;;;;;;;19.98;12.23;;;9.30;99.90;;;;;;4921083;29;19922;-92
2021/10/09 18:06:16;;;;;;;22.23;11.73;;;9.30;99.90;;;;;;4914339;29;20047;-91
2021/10/09 18:13:25;;;;;;;21.95;13.20;;;9.30;99.90;;;;;;4907554;29;20040;-90
2021/10/09 18:16:31;;;;;;;22.38;13.93;;;9.40;99.90;;;;;;4913759;29;20045;-90
2021/10/09 18:19:30;;;;;;;17.40;12.55;;;9.50;99.90;;;;;;4906263;29;20064;-90
2021/10/09 18:22:56;;;;;;;;;;;;;;;;;;;;;
2021/10/09 18:26:13;;;;;;;24.17;13.25;;;9.60;99.90;;;;;;4896807;29;20467;-90
2021/10/09 18:30:07;;;;;;;19.40;12.07;;;9.50;99.90;;;;;;4898483;29;20068;-91